Zhe Pu Tuo 2012 — BKRA5 — position and weather

sailwx.info

Track history (hours):
 
Tides and Currents Weather Stations Pressure Air Temp Water Temp Dewpoint Dewpoint Depression Visibility Wind Speed Wind Dir Waves Ship Positions

Zhe Pu Tuo 2012

Last reported at 2016-May-03 23:24 UTC. Time now 2016-May-03 23:54 UTC.
Position N 38°59' E 117°43'.

Length 57 m; draft 3.7 m.

Type: Fishing. MMSI: 412763040.

Date/timePositionNaut miles runAvg speedWind from/ knotsBaromVisibWave heightAir tempDewpointWater temp
2016-May-03 23:24N 38°59' E 117°43'0 0.0
2016-May-03 22:33N 38°59' E 117°43'0 0.0
2016-May-03 21:33N 38°59' E 117°43'0 0.0
2016-May-03 20:33N 38°59' E 117°43'0 0.0
2016-May-03 19:33N 38°59' E 117°43'0 0.0
2016-May-03 18:31N 38°59' E 117°43'0 0.0
2016-May-03 17:33N 38°59' E 117°43'0 0.0
2016-May-03 16:26N 38°59' E 117°43'0 0.0
2016-May-03 15:25N 38°59' E 117°43'0 0.0
2016-May-03 14:33N 38°59' E 117°43'0 0.0
2016-May-03 13:26N 38°59' E 117°43'0 0.0
2016-May-03 12:32N 38°59' E 117°43'0 0.0
2016-May-03 11:33N 38°59' E 117°43'0 0.0
2016-May-03 10:33N 38°59' E 117°43'0 0.0
2016-May-03 09:33N 38°59' E 117°43'0 0.0
2016-May-03 08:33N 38°59' E 117°43'0 0.0
2016-May-03 07:33N 38°59' E 117°43'0 0.1
2016-May-03 06:33N 38°59' E 117°43'0 0.5
2016-May-03 05:33N 38°59' E 117°44'0 0.0
2016-May-03 04:32N 38°59' E 117°44'0 0.4
2016-May-03 03:33N 38°59' E 117°44'1 0.5
2016-May-03 02:24N 38°59' E 117°43'0 0.0
2016-May-03 01:32N 38°59' E 117°43'0 0.0
2016-May-03 00:33N 38°59' E 117°43'0 0.0
2016-May-02 23:33N 38°59' E 117°43'0 0.0
2016-May-02 22:33N 38°59' E 117°43'0 0.0
2016-May-02 21:33N 38°59' E 117°43'0 0.0
2016-May-02 20:33N 38°59' E 117°43'0 0.0
2016-May-02 19:33N 38°59' E 117°43'0 0.0
2016-May-02 18:20N 38°59' E 117°43'0 0.0
2016-May-02 17:33N 38°59' E 117°43'0 0.0
2016-May-02 16:33N 38°59' E 117°43'0 0.3
2016-May-02 15:33N 38°59' E 117°44'  
2016-Apr-26 12:33N 38°57' E 117°51'7 6.5
2016-Apr-26 11:33N 38°59' E 117°43'0 0.0
2016-Apr-26 10:33N 38°59' E 117°43'0 0.0
2016-Apr-26 09:33N 38°59' E 117°43'0 0.0
2016-Apr-26 08:33N 38°59' E 117°43'0 0.0
2016-Apr-26 07:31N 38°59' E 117°43'0 0.0
2016-Apr-26 06:33N 38°59' E 117°43'0 0.0
2016-Apr-26 05:33N 38°59' E 117°43'0 0.0
2016-Apr-26 04:30N 38°59' E 117°43'0 0.0
2016-Apr-26 03:29N 38°59' E 117°43'0 0.0
2016-Apr-26 02:33N 38°59' E 117°43'0 0.0
2016-Apr-26 01:33N 38°59' E 117°43'0 0.5
2016-Apr-26 00:33N 38°59' E 117°44'0 0.0
2016-Apr-25 23:33N 38°59' E 117°44'1 0.5
2016-Apr-25 22:33N 38°59' E 117°43'0 0.0
2016-Apr-25 21:33N 38°59' E 117°43'0 0.0
2016-Apr-25 20:33N 38°59' E 117°43'0 0.0
2016-Apr-25 19:33N 38°59' E 117°43'0 0.0
2016-Apr-25 18:33N 38°59' E 117°43'0 0.0
2016-Apr-25 17:33N 38°59' E 117°43'0 0.0
2016-Apr-25 16:33N 38°59' E 117°43'0 0.0
2016-Apr-25 15:33N 38°59' E 117°43'0 0.0
2016-Apr-25 14:33N 38°59' E 117°43'0 0.0
2016-Apr-25 13:33N 38°59' E 117°43'0 0.0
2016-Apr-25 12:34N 38°59' E 117°43'0 0.0
2016-Apr-25 11:33N 38°59' E 117°43'0 0.0
2016-Apr-25 10:32N 38°59' E 117°43'0 0.0
2016-Apr-25 09:32N 38°59' E 117°43'0 0.0
2016-Apr-25 08:33N 38°59' E 117°43'0 0.0
2016-Apr-25 07:33N 38°59' E 117°43'0 0.0
2016-Apr-25 06:33N 38°59' E 117°43'0 0.0
2016-Apr-25 05:33N 38°59' E 117°43'0 0.0
2016-Apr-25 04:34N 38°59' E 117°43'0 0.0
2016-Apr-25 03:33N 38°59' E 117°43'0 0.0
2016-Apr-25 02:33N 38°59' E 117°43'0 0.0
2016-Apr-25 01:05N 38°59' E 117°43'0 0.0
2016-Apr-25 00:26N 38°59' E 117°43'0 0.0
2016-Apr-24 23:33N 38°59' E 117°43'0 0.0
2016-Apr-24 14:31N 38°59' E 117°43'0 0.0
2016-Apr-24 13:31N 38°59' E 117°43'0 0.0
2016-Apr-24 12:33N 38°59' E 117°43'0 0.0
2016-Apr-24 11:30N 38°59' E 117°43'5 5.4
2016-Apr-24 10:33N 38°58' E 117°50'  
Track history (hours):
 
Tides and Currents Weather Stations Pressure Air Temp Water Temp Dewpoint Dewpoint Depression Visibility Wind Speed Wind Dir Waves Ship Positions

Zhe Pu Tuo 2012

Last reported at 2016-May-03 23:24 UTC. Time now 2016-May-03 23:54 UTC.
Position N 38°59' E 117°43'.

Length 57 m; draft 3.7 m.

Type: Fishing. MMSI: 412763040.

Date/timePositionNaut miles runAvg speedWind from/ knotsBaromVisibWave heightAir tempDewpointWater temp
2016-May-03 23:24N 38°59' E 117°43'0 0.0
2016-May-03 22:33N 38°59' E 117°43'0 0.0
2016-May-03 21:33N 38°59' E 117°43'0 0.0
2016-May-03 20:33N 38°59' E 117°43'0 0.0
2016-May-03 19:33N 38°59' E 117°43'0 0.0
2016-May-03 18:31N 38°59' E 117°43'0 0.0
2016-May-03 17:33N 38°59' E 117°43'0 0.0
2016-May-03 16:26N 38°59' E 117°43'0 0.0
2016-May-03 15:25N 38°59' E 117°43'0 0.0
2016-May-03 14:33N 38°59' E 117°43'0 0.0
2016-May-03 13:26N 38°59' E 117°43'0 0.0
2016-May-03 12:32N 38°59' E 117°43'0 0.0
2016-May-03 11:33N 38°59' E 117°43'0 0.0
2016-May-03 10:33N 38°59' E 117°43'0 0.0
2016-May-03 09:33N 38°59' E 117°43'0 0.0
2016-May-03 08:33N 38°59' E 117°43'0 0.0
2016-May-03 07:33N 38°59' E 117°43'0 0.1
2016-May-03 06:33N 38°59' E 117°43'0 0.5
2016-May-03 05:33N 38°59' E 117°44'0 0.0
2016-May-03 04:32N 38°59' E 117°44'0 0.4
2016-May-03 03:33N 38°59' E 117°44'1 0.5
2016-May-03 02:24N 38°59' E 117°43'0 0.0
2016-May-03 01:32N 38°59' E 117°43'0 0.0
2016-May-03 00:33N 38°59' E 117°43'0 0.0
2016-May-02 23:33N 38°59' E 117°43'0 0.0
2016-May-02 22:33N 38°59' E 117°43'0 0.0
2016-May-02 21:33N 38°59' E 117°43'0 0.0
2016-May-02 20:33N 38°59' E 117°43'0 0.0
2016-May-02 19:33N 38°59' E 117°43'0 0.0
2016-May-02 18:20N 38°59' E 117°43'0 0.0
2016-May-02 17:33N 38°59' E 117°43'0 0.0
2016-May-02 16:33N 38°59' E 117°43'0 0.3
2016-May-02 15:33N 38°59' E 117°44'  
2016-Apr-26 12:33N 38°57' E 117°51'7 6.5
2016-Apr-26 11:33N 38°59' E 117°43'0 0.0
2016-Apr-26 10:33N 38°59' E 117°43'0 0.0
2016-Apr-26 09:33N 38°59' E 117°43'0 0.0
2016-Apr-26 08:33N 38°59' E 117°43'0 0.0
2016-Apr-26 07:31N 38°59' E 117°43'0 0.0
2016-Apr-26 06:33N 38°59' E 117°43'0 0.0
2016-Apr-26 05:33N 38°59' E 117°43'0 0.0
2016-Apr-26 04:30N 38°59' E 117°43'0 0.0
2016-Apr-26 03:29N 38°59' E 117°43'0 0.0
2016-Apr-26 02:33N 38°59' E 117°43'0 0.0
2016-Apr-26 01:33N 38°59' E 117°43'0 0.5
2016-Apr-26 00:33N 38°59' E 117°44'0 0.0
2016-Apr-25 23:33N 38°59' E 117°44'1 0.5
2016-Apr-25 22:33N 38°59' E 117°43'0 0.0
2016-Apr-25 21:33N 38°59' E 117°43'0 0.0
2016-Apr-25 20:33N 38°59' E 117°43'0 0.0
2016-Apr-25 19:33N 38°59' E 117°43'0 0.0
2016-Apr-25 18:33N 38°59' E 117°43'0 0.0
2016-Apr-25 17:33N 38°59' E 117°43'0 0.0
2016-Apr-25 16:33N 38°59' E 117°43'0 0.0
2016-Apr-25 15:33N 38°59' E 117°43'0 0.0
2016-Apr-25 14:33N 38°59' E 117°43'0 0.0
2016-Apr-25 13:33N 38°59' E 117°43'0 0.0
2016-Apr-25 12:34N 38°59' E 117°43'0 0.0
2016-Apr-25 11:33N 38°59' E 117°43'0 0.0
2016-Apr-25 10:32N 38°59' E 117°43'0 0.0
2016-Apr-25 09:32N 38°59' E 117°43'0 0.0
2016-Apr-25 08:33N 38°59' E 117°43'0 0.0
2016-Apr-25 07:33N 38°59' E 117°43'0 0.0
2016-Apr-25 06:33N 38°59' E 117°43'0 0.0
2016-Apr-25 05:33N 38°59' E 117°43'0 0.0
2016-Apr-25 04:34N 38°59' E 117°43'0 0.0
2016-Apr-25 03:33N 38°59' E 117°43'0 0.0
2016-Apr-25 02:33N 38°59' E 117°43'0 0.0
2016-Apr-25 01:05N 38°59' E 117°43'0 0.0
2016-Apr-25 00:26N 38°59' E 117°43'0 0.0
2016-Apr-24 23:33N 38°59' E 117°43'0 0.0
2016-Apr-24 14:31N 38°59' E 117°43'0 0.0
2016-Apr-24 13:31N 38°59' E 117°43'0 0.0
2016-Apr-24 12:33N 38°59' E 117°43'0 0.0
2016-Apr-24 11:30N 38°59' E 117°43'5 5.4
2016-Apr-24 10:33N 38°58' E 117°50'  

Dump ship's entire track history